sensor_id;sensor_type;location;lat;lon;timestamp;pressure;altitude;pressure_sealevel;temperature;humidity
34742;BME280;20968;42.696;23.360;2022-09-20T00:01:30;95326.84;;;12.66;62.21
34742;BME280;20968;42.696;23.360;2022-09-20T00:04:34;95300.69;;;12.36;62.25
34742;BME280;20968;42.696;23.360;2022-09-20T00:07:03;95310.31;;;12.46;62.78
34742;BME280;20968;42.696;23.360;2022-09-20T00:09:31;95314.16;;;12.54;62.01
34742;BME280;20968;42.696;23.360;2022-09-20T00:12:01;95313.34;;;12.48;62.38
34742;BME280;20968;42.696;23.360;2022-09-20T00:14:27;95316.22;;;12.34;62.06
34742;BME280;20968;42.696;23.360;2022-09-20T00:16:52;95328.50;;;12.33;62.53
34742;BME280;20968;42.696;23.360;2022-09-20T00:19:20;95338.78;;;12.52;62.48
34742;BME280;20968;42.696;23.360;2022-09-20T00:21:46;95329.41;;;12.44;62.51
34742;BME280;20968;42.696;23.360;2022-09-20T00:24:12;95316.47;;;12.36;62.49
34742;BME280;20968;42.696;23.360;2022-09-20T00:27:23;95324.56;;;12.39;63.09
34742;BME280;20968;42.696;23.360;2022-09-20T00:30:14;95315.44;;;12.33;62.22
34742;BME280;20968;42.696;23.360;2022-09-20T00:32:55;95311.44;;;12.34;63.24
34742;BME280;20968;42.696;23.360;2022-09-20T00:35:47;95322.44;;;12.29;63.62
34742;BME280;20968;42.696;23.360;2022-09-20T00:38:14;95313.06;;;12.21;63.94
34742;BME280;20968;42.696;23.360;2022-09-20T00:40:53;95326.91;;;12.26;63.54
34742;BME280;20968;42.696;23.360;2022-09-20T00:43:35;95308.44;;;12.12;63.08
34742;BME280;20968;42.696;23.360;2022-09-20T00:46:03;95315.63;;;12.04;63.48
34742;BME280;20968;42.696;23.360;2022-09-20T00:48:30;95327.00;;;12.12;63.00
34742;BME280;20968;42.696;23.360;2022-09-20T00:51:05;95324.72;;;12.10;63.63
34742;BME280;20968;42.696;23.360;2022-09-20T00:53:39;95338.00;;;12.06;63.61
34742;BME280;20968;42.696;23.360;2022-09-20T00:56:09;95332.19;;;12.04;63.79
34742;BME280;20968;42.696;23.360;2022-09-20T01:01:58;95342.44;;;12.04;64.67
34742;BME280;20968;42.696;23.360;2022-09-20T01:04:29;95316.47;;;11.90;65.12
34742;BME280;20968;42.696;23.360;2022-09-20T01:07:08;95326.38;;;12.02;63.93
34742;BME280;20968;42.696;23.360;2022-09-20T01:09:35;95320.25;;;11.93;64.12
34742;BME280;20968;42.696;23.360;2022-09-20T01:12:05;95321.16;;;12.04;64.13
34742;BME280;20968;42.696;23.360;2022-09-20T01:14:46;95333.00;;;12.10;63.76
34742;BME280;20968;42.696;23.360;2022-09-20T01:17:20;95335.28;;;12.12;63.73
34742;BME280;20968;42.696;23.360;2022-09-20T01:37:07;95310.13;;;12.04;62.43
34742;BME280;20968;42.696;23.360;2022-09-20T01:43:05;95319.91;;;11.85;63.46
34742;BME280;20968;42.696;23.360;2022-09-20T01:45:53;95325.56;;;11.96;63.40
34742;BME280;20968;42.696;23.360;2022-09-20T01:48:57;95329.69;;;11.86;63.42
34742;BME280;20968;42.696;23.360;2022-09-20T02:02:13;95340.34;;;11.59;65.02
34742;BME280;20968;42.696;23.360;2022-09-20T02:11:16;95324.66;;;11.31;66.28
34742;BME280;20968;42.696;23.360;2022-09-20T02:16:29;95315.59;;;11.30;67.06
34742;BME280;20968;42.696;23.360;2022-09-20T02:25:17;95318.84;;;11.29;67.41
34742;BME280;20968;42.696;23.360;2022-09-20T02:54:33;95336.28;;;11.06;66.67
34742;BME280;20968;42.696;23.360;2022-09-20T03:00:39;95339.81;;;10.92;67.50
34742;BME280;20968;42.696;23.360;2022-09-20T03:03:49;95338.19;;;10.85;68.16
34742;BME280;20968;42.696;23.360;2022-09-20T03:07:14;95331.19;;;10.70;68.56
34742;BME280;20968;42.696;23.360;2022-09-20T03:15:04;95340.00;;;10.74;69.04
34742;BME280;20968;42.696;23.360;2022-09-20T03:31:10;95343.50;;;10.60;68.62
34742;BME280;20968;42.696;23.360;2022-09-20T03:50:11;95363.06;;;10.62;68.56
34742;BME280;20968;42.696;23.360;2022-09-20T04:04:43;95364.59;;;10.78;67.36
34742;BME280;20968;42.696;23.360;2022-09-20T04:21:32;95382.47;;;10.96;66.06
34742;BME280;20968;42.696;23.360;2022-09-20T04:30:08;95377.34;;;10.89;66.30
34742;BME280;20968;42.696;23.360;2022-09-20T04:33:20;95374.00;;;10.85;65.87
34742;BME280;20968;42.696;23.360;2022-09-20T04:58:34;95411.78;;;11.43;66.61
34742;BME280;20968;42.696;23.360;2022-09-20T05:12:51;95415.03;;;12.69;65.42
34742;BME280;20968;42.696;23.360;2022-09-20T05:54:26;95404.94;;;12.21;63.37
34742;BME280;20968;42.696;23.360;2022-09-20T06:28:20;95417.25;;;12.65;62.49
34742;BME280;20968;42.696;23.360;2022-09-20T06:31:04;95432.28;;;12.84;60.84
34742;BME280;20968;42.696;23.360;2022-09-20T06:34:06;95429.72;;;13.01;60.80
34742;BME280;20968;42.696;23.360;2022-09-20T06:36:59;95418.13;;;12.97;60.26
34742;BME280;20968;42.696;23.360;2022-09-20T06:45:48;95415.22;;;12.86;60.09
34742;BME280;20968;42.696;23.360;2022-09-20T07:38:14;95442.31;;;14.25;55.72
34742;BME280;20968;42.696;23.360;2022-09-20T07:41:07;95437.88;;;14.44;57.35
34742;BME280;20968;42.696;23.360;2022-09-20T07:43:39;95427.72;;;14.82;55.86
34742;BME280;20968;42.696;23.360;2022-09-20T07:46:11;95428.28;;;15.03;54.53
34742;BME280;20968;42.696;23.360;2022-09-20T07:48:38;95431.06;;;15.08;54.28
34742;BME280;20968;42.696;23.360;2022-09-20T07:51:10;95425.00;;;15.04;54.10
34742;BME280;20968;42.696;23.360;2022-09-20T07:53:45;95428.06;;;15.23;53.33
34742;BME280;20968;42.696;23.360;2022-09-20T07:56:19;95421.97;;;15.08;53.73
34742;BME280;20968;42.696;23.360;2022-09-20T07:58:45;95423.56;;;15.36;53.61
34742;BME280;20968;42.696;23.360;2022-09-20T08:01:12;95414.25;;;15.34;53.84
34742;BME280;20968;42.696;23.360;2022-09-20T08:03:45;95422.84;;;15.63;52.04
34742;BME280;20968;42.696;23.360;2022-09-20T08:06:11;95431.16;;;15.90;51.03
34742;BME280;20968;42.696;23.360;2022-09-20T08:08:46;95432.66;;;15.97;50.58
34742;BME280;20968;42.696;23.360;2022-09-20T08:11:18;95425.34;;;15.83;51.61
34742;BME280;20968;42.696;23.360;2022-09-20T08:13:48;95421.81;;;15.77;50.87
34742;BME280;20968;42.696;23.360;2022-09-20T08:16:15;95422.81;;;15.79;50.37
34742;BME280;20968;42.696;23.360;2022-09-20T08:18:45;95417.28;;;15.57;50.33
34742;BME280;20968;42.696;23.360;2022-09-20T08:21:13;95424.09;;;15.51;49.56
34742;BME280;20968;42.696;23.360;2022-09-20T08:23:40;95435.94;;;15.35;48.02
34742;BME280;20968;42.696;23.360;2022-09-20T08:26:11;95425.59;;;15.30;49.17
34742;BME280;20968;42.696;23.360;2022-09-20T08:28:40;95433.59;;;15.12;49.03
34742;BME280;20968;42.696;23.360;2022-09-20T08:31:12;95434.84;;;15.11;49.25
34742;BME280;20968;42.696;23.360;2022-09-20T08:33:45;95423.09;;;15.54;49.84
34742;BME280;20968;42.696;23.360;2022-09-20T08:36:18;95407.66;;;15.97;46.60
34742;BME280;20968;42.696;23.360;2022-09-20T08:38:45;95410.44;;;15.97;45.02
34742;BME280;20968;42.696;23.360;2022-09-20T08:41:31;95412.22;;;16.00;45.67
34742;BME280;20968;42.696;23.360;2022-09-20T08:44:37;95405.81;;;16.27;44.65
34742;BME280;20968;42.696;23.360;2022-09-20T08:47:44;95397.06;;;16.79;45.98
34742;BME280;20968;42.696;23.360;2022-09-20T08:50:30;95398.19;;;16.54;44.66
34742;BME280;20968;42.696;23.360;2022-09-20T08:53:28;95388.13;;;16.40;44.93
34742;BME280;20968;42.696;23.360;2022-09-20T08:56:13;95398.47;;;16.45;45.25
34742;BME280;20968;42.696;23.360;2022-09-20T08:58:58;95412.84;;;16.60;44.69
34742;BME280;20968;42.696;23.360;2022-09-20T09:04:50;95381.25;;;17.04;44.06
34742;BME280;20968;42.696;23.360;2022-09-20T09:07:19;95387.88;;;17.35;42.00
34742;BME280;20968;42.696;23.360;2022-09-20T09:09:50;95376.81;;;17.59;41.69
34742;BME280;20968;42.696;23.360;2022-09-20T09:12:25;95375.00;;;17.38;41.68
34742;BME280;20968;42.696;23.360;2022-09-20T09:14:57;95360.06;;;16.90;43.27
34742;BME280;20968;42.696;23.360;2022-09-20T09:17:26;95367.28;;;16.69;43.88
34742;BME280;20968;42.696;23.360;2022-09-20T09:20:23;95375.78;;;16.31;44.00
34742;BME280;20968;42.696;23.360;2022-09-20T09:33:44;95350.78;;;17.22;40.32
34742;BME280;20968;42.696;23.360;2022-09-20T09:36:23;95338.81;;;17.32;39.47
34742;BME280;20968;42.696;23.360;2022-09-20T09:41:36;95348.28;;;17.18;40.22
34742;BME280;20968;42.696;23.360;2022-09-20T09:44:28;95333.78;;;16.91;40.36
34742;BME280;20968;42.696;23.360;2022-09-20T09:46:56;95347.94;;;16.87;41.50
34742;BME280;20968;42.696;23.360;2022-09-20T09:49:26;95347.59;;;17.07;42.70
34742;BME280;20968;42.696;23.360;2022-09-20T10:02:13;95345.81;;;16.69;42.42
34742;BME280;20968;42.696;23.360;2022-09-20T10:05:02;95352.66;;;16.57;42.84
34742;BME280;20968;42.696;23.360;2022-09-20T10:10:38;95348.44;;;16.45;44.23
34742;BME280;20968;42.696;23.360;2022-09-20T10:13:31;95344.19;;;16.85;42.97
34742;BME280;20968;42.696;23.360;2022-09-20T10:18:53;95335.25;;;16.97;42.86
34742;BME280;20968;42.696;23.360;2022-09-20T10:25:00;95338.41;;;16.77;44.19
34742;BME280;20968;42.696;23.360;2022-09-20T10:36:35;95312.19;;;18.14;39.28
34742;BME280;20968;42.696;23.360;2022-09-20T10:39:36;95340.13;;;17.85;40.70
34742;BME280;20968;42.696;23.360;2022-09-20T10:42:41;95326.63;;;17.35;41.41
34742;BME280;20968;42.696;23.360;2022-09-20T11:31:59;95300.59;;;19.07;36.10
34742;BME280;20968;42.696;23.360;2022-09-20T11:34:50;95291.94;;;18.92;36.12
34742;BME280;20968;42.696;23.360;2022-09-20T11:37:22;95295.94;;;18.78;36.23
34742;BME280;20968;42.696;23.360;2022-09-20T11:42:59;95286.28;;;18.61;35.90
34742;BME280;20968;42.696;23.360;2022-09-20T11:45:28;95296.56;;;18.72;35.78
34742;BME280;20968;42.696;23.360;2022-09-20T11:48:20;95291.56;;;18.83;36.74
34742;BME280;20968;42.696;23.360;2022-09-20T12:11:04;95285.28;;;18.77;36.96
34742;BME280;20968;42.696;23.360;2022-09-20T12:26:45;95283.59;;;19.05;36.11
34742;BME280;20968;42.696;23.360;2022-09-20T12:35:55;95254.72;;;19.03;36.33
34742;BME280;20968;42.696;23.360;2022-09-20T12:38:59;95260.31;;;19.03;36.65
34742;BME280;20968;42.696;23.360;2022-09-20T12:41:58;95260.63;;;19.31;36.41
34742;BME280;20968;42.696;23.360;2022-09-20T12:45:22;95270.91;;;19.23;36.33
34742;BME280;20968;42.696;23.360;2022-09-20T12:47:54;95252.97;;;19.00;37.19
34742;BME280;20968;42.696;23.360;2022-09-20T12:50:21;95273.84;;;18.62;37.48
34742;BME280;20968;42.696;23.360;2022-09-20T12:53:12;95258.25;;;18.54;37.45
34742;BME280;20968;42.696;23.360;2022-09-20T12:56:12;95265.63;;;18.70;37.04
34742;BME280;20968;42.696;23.360;2022-09-20T12:58:50;95255.38;;;18.41;37.36
34742;BME280;20968;42.696;23.360;2022-09-20T13:03:49;95254.09;;;18.78;37.33
34742;BME280;20968;42.696;23.360;2022-09-20T13:06:32;95262.19;;;18.95;35.83
34742;BME280;20968;42.696;23.360;2022-09-20T13:09:08;95255.06;;;18.81;36.79
34742;BME280;20968;42.696;23.360;2022-09-20T13:15:36;95263.31;;;19.05;35.22
34742;BME280;20968;42.696;23.360;2022-09-20T13:18:17;95259.19;;;18.93;34.67
34742;BME280;20968;42.696;23.360;2022-09-20T13:20:51;95261.00;;;18.72;35.13
34742;BME280;20968;42.696;23.360;2022-09-20T13:33:47;95246.69;;;18.81;35.00
34742;BME280;20968;42.696;23.360;2022-09-20T13:36:23;95250.19;;;19.00;34.83
34742;BME280;20968;42.696;23.360;2022-09-20T13:38:52;95248.78;;;19.12;34.57
34742;BME280;20968;42.696;23.360;2022-09-20T13:41:27;95248.53;;;19.10;33.71
34742;BME280;20968;42.696;23.360;2022-09-20T13:43:56;95244.09;;;19.01;33.78
34742;BME280;20968;42.696;23.360;2022-09-20T13:46:28;95233.66;;;19.02;35.43
34742;BME280;20968;42.696;23.360;2022-09-20T13:49:19;95252.16;;;19.36;34.54
34742;BME280;20968;42.696;23.360;2022-09-20T13:51:47;95244.44;;;19.42;33.77
34742;BME280;20968;42.696;23.360;2022-09-20T13:54:36;95243.38;;;19.45;34.24
34742;BME280;20968;42.696;23.360;2022-09-20T13:57:10;95241.47;;;19.22;34.71
34742;BME280;20968;42.696;23.360;2022-09-20T13:59:45;95251.59;;;19.25;34.47
34742;BME280;20968;42.696;23.360;2022-09-20T14:02:29;95243.22;;;19.25;34.61
34742;BME280;20968;42.696;23.360;2022-09-20T14:04:59;95235.28;;;19.29;34.94
34742;BME280;20968;42.696;23.360;2022-09-20T14:07:27;95225.56;;;19.17;34.96
34742;BME280;20968;42.696;23.360;2022-09-20T14:09:57;95236.31;;;19.13;35.33
34742;BME280;20968;42.696;23.360;2022-09-20T14:12:24;95232.53;;;18.92;35.95
34742;BME280;20968;42.696;23.360;2022-09-20T14:14:51;95234.75;;;18.80;36.36
34742;BME280;20968;42.696;23.360;2022-09-20T14:17:19;95233.94;;;18.85;36.47
34742;BME280;20968;42.696;23.360;2022-09-20T14:19:51;95233.00;;;18.96;37.39
34742;BME280;20968;42.696;23.360;2022-09-20T14:22:32;95241.34;;;18.83;37.71
34742;BME280;20968;42.696;23.360;2022-09-20T14:28:18;95234.78;;;18.44;38.06
34742;BME280;20968;42.696;23.360;2022-09-20T14:30:46;95246.84;;;18.33;38.68
34742;BME280;20968;42.696;23.360;2022-09-20T14:33:19;95247.53;;;18.39;38.30
34742;BME280;20968;42.696;23.360;2022-09-20T14:35:47;95243.81;;;18.31;38.64
34742;BME280;20968;42.696;23.360;2022-09-20T14:38:23;95250.25;;;18.26;37.81
34742;BME280;20968;42.696;23.360;2022-09-20T14:40:49;95236.88;;;18.19;37.64
34742;BME280;20968;42.696;23.360;2022-09-20T14:43:33;95255.38;;;18.22;38.08
34742;BME280;20968;42.696;23.360;2022-09-20T14:46:18;95254.19;;;18.12;38.00
34742;BME280;20968;42.696;23.360;2022-09-20T14:48:44;95252.91;;;18.13;37.73
34742;BME280;20968;42.696;23.360;2022-09-20T14:51:11;95266.97;;;18.26;37.83
34742;BME280;20968;42.696;23.360;2022-09-20T14:54:13;95241.66;;;18.19;38.74
34742;BME280;20968;42.696;23.360;2022-09-20T14:56:46;95249.19;;;18.29;38.75
34742;BME280;20968;42.696;23.360;2022-09-20T14:59:55;95262.25;;;18.40;37.85
34742;BME280;20968;42.696;23.360;2022-09-20T15:02:25;95253.31;;;18.23;38.86
34742;BME280;20968;42.696;23.360;2022-09-20T15:05:29;95248.06;;;18.38;39.48
34742;BME280;20968;42.696;23.360;2022-09-20T15:07:56;95240.66;;;18.40;39.90
34742;BME280;20968;42.696;23.360;2022-09-20T15:10:23;95262.25;;;18.58;40.61
34742;BME280;20968;42.696;23.360;2022-09-20T15:12:51;95248.59;;;18.55;40.30
34742;BME280;20968;42.696;23.360;2022-09-20T15:15:17;95255.59;;;18.61;39.95
34742;BME280;20968;42.696;23.360;2022-09-20T15:17:45;95255.16;;;18.39;39.84
34742;BME280;20968;42.696;23.360;2022-09-20T15:20:15;95248.19;;;18.45;39.79
34742;BME280;20968;42.696;23.360;2022-09-20T15:22:45;95239.00;;;18.32;39.33
34742;BME280;20968;42.696;23.360;2022-09-20T15:25:17;95252.19;;;18.31;40.02
34742;BME280;20968;42.696;23.360;2022-09-20T15:27:46;95252.50;;;18.28;40.10
34742;BME280;20968;42.696;23.360;2022-09-20T15:30:16;95263.34;;;18.31;41.09
34742;BME280;20968;42.696;23.360;2022-09-20T15:32:45;95250.91;;;18.32;41.76
34742;BME280;20968;42.696;23.360;2022-09-20T15:35:17;95255.28;;;18.46;41.93
34742;BME280;20968;42.696;23.360;2022-09-20T15:37:55;95243.69;;;18.24;41.80
34742;BME280;20968;42.696;23.360;2022-09-20T15:40:30;95248.75;;;18.20;42.66
34742;BME280;20968;42.696;23.360;2022-09-20T15:43:12;95260.78;;;18.33;42.46
34742;BME280;20968;42.696;23.360;2022-09-20T15:46:17;95252.50;;;18.28;42.20
34742;BME280;20968;42.696;23.360;2022-09-20T15:48:47;95262.06;;;18.32;41.59
34742;BME280;20968;42.696;23.360;2022-09-20T15:51:26;95265.47;;;18.01;41.54
34742;BME280;20968;42.696;23.360;2022-09-20T15:57:44;95258.84;;;17.33;43.06
34742;BME280;20968;42.696;23.360;2022-09-20T16:00:22;95272.75;;;17.33;43.19
34742;BME280;20968;42.696;23.360;2022-09-20T16:10:06;95260.66;;;16.55;45.27
34742;BME280;20968;42.696;23.360;2022-09-20T16:15:23;95279.41;;;16.49;46.24
34742;BME280;20968;42.696;23.360;2022-09-20T16:17:55;95276.19;;;16.40;46.22
34742;BME280;20968;42.696;23.360;2022-09-20T16:20:41;95271.94;;;16.28;45.34
34742;BME280;20968;42.696;23.360;2022-09-20T16:23:30;95279.25;;;16.26;46.46
34742;BME280;20968;42.696;23.360;2022-09-20T16:26:01;95283.06;;;16.23;47.15
34742;BME280;20968;42.696;23.360;2022-09-20T16:28:27;95272.72;;;16.18;46.67
34742;BME280;20968;42.696;23.360;2022-09-20T16:44:07;95295.34;;;15.81;47.35
34742;BME280;20968;42.696;23.360;2022-09-20T16:47:08;95295.34;;;15.65;48.00
34742;BME280;20968;42.696;23.360;2022-09-20T16:49:56;95297.38;;;15.64;48.33
34742;BME280;20968;42.696;23.360;2022-09-20T16:52:26;95286.81;;;15.52;48.19
34742;BME280;20968;42.696;23.360;2022-09-20T16:55:01;95287.06;;;15.49;48.58
34742;BME280;20968;42.696;23.360;2022-09-20T16:57:42;95298.44;;;15.56;48.64
34742;BME280;20968;42.696;23.360;2022-09-20T17:01:08;95293.66;;;15.40;48.91
34742;BME280;20968;42.696;23.360;2022-09-20T17:13:16;95300.94;;;15.16;49.98
34742;BME280;20968;42.696;23.360;2022-09-20T17:15:41;95291.88;;;15.15;50.33
34742;BME280;20968;42.696;23.360;2022-09-20T17:18:07;95298.41;;;15.12;49.80
34742;BME280;20968;42.696;23.360;2022-09-20T17:20:42;95311.53;;;15.17;50.35
34742;BME280;20968;42.696;23.360;2022-09-20T17:23:14;95320.66;;;15.23;50.12
34742;BME280;20968;42.696;23.360;2022-09-20T17:25:42;95313.81;;;15.13;50.32
34742;BME280;20968;42.696;23.360;2022-09-20T18:07:08;95330.19;;;14.84;53.04
34742;BME280;20968;42.696;23.360;2022-09-20T18:09:34;95327.41;;;15.00;58.30
34742;BME280;20968;42.696;23.360;2022-09-20T18:12:01;95339.56;;;15.30;53.13
34742;BME280;20968;42.696;23.360;2022-09-20T18:17:34;95344.69;;;16.38;51.04
34742;BME280;20968;42.696;23.360;2022-09-20T18:20:23;95329.44;;;16.49;49.19
34742;BME280;20968;42.696;23.360;2022-09-20T18:22:48;95337.78;;;16.49;46.33
34742;BME280;20968;42.696;23.360;2022-09-20T18:25:17;95340.91;;;16.24;47.50
34742;BME280;20968;42.696;23.360;2022-09-20T18:27:46;95338.94;;;16.08;47.55
34742;BME280;20968;42.696;23.360;2022-09-20T18:30:26;95349.06;;;16.06;47.51
34742;BME280;20968;42.696;23.360;2022-09-20T18:32:52;95350.03;;;16.08;48.13
34742;BME280;20968;42.696;23.360;2022-09-20T18:35:24;95343.00;;;16.02;48.21
34742;BME280;20968;42.696;23.360;2022-09-20T18:38:23;95358.13;;;16.12;48.77
34742;BME280;20968;42.696;23.360;2022-09-20T18:52:57;95365.53;;;17.12;51.38
34742;BME280;20968;42.696;23.360;2022-09-20T18:55:24;95349.97;;;16.92;49.37
34742;BME280;20968;42.696;23.360;2022-09-20T18:57:53;95347.50;;;16.78;48.67
34742;BME280;20968;42.696;23.360;2022-09-20T19:00:43;95343.56;;;16.62;48.11
34742;BME280;20968;42.696;23.360;2022-09-20T19:03:48;95355.47;;;16.52;48.42
34742;BME280;20968;42.696;23.360;2022-09-20T19:06:18;95352.22;;;16.42;48.44
34742;BME280;20968;42.696;23.360;2022-09-20T19:09:18;95360.63;;;16.32;48.67
34742;BME280;20968;42.696;23.360;2022-09-20T19:12:02;95356.84;;;16.18;48.81
34742;BME280;20968;42.696;23.360;2022-09-20T19:17:10;95349.38;;;15.80;50.06
34742;BME280;20968;42.696;23.360;2022-09-20T19:25:45;95349.91;;;15.30;50.99
34742;BME280;20968;42.696;23.360;2022-09-20T19:28:14;95362.22;;;15.18;50.99
34742;BME280;20968;42.696;23.360;2022-09-20T19:30:41;95366.03;;;15.26;50.73
34742;BME280;20968;42.696;23.360;2022-09-20T19:33:17;95364.00;;;15.92;60.21
34742;BME280;20968;42.696;23.360;2022-09-20T19:41:47;95377.84;;;16.03;51.39
34742;BME280;20968;42.696;23.360;2022-09-20T19:51:56;95370.34;;;15.49;51.55
34742;BME280;20968;42.696;23.360;2022-09-20T19:54:22;95377.16;;;15.53;51.43
34742;BME280;20968;42.696;23.360;2022-09-20T19:59:16;95380.44;;;15.35;52.17
34742;BME280;20968;42.696;23.360;2022-09-20T20:01:43;95377.59;;;15.13;51.95
34742;BME280;20968;42.696;23.360;2022-09-20T20:04:13;95374.38;;;15.26;60.21
34742;BME280;20968;42.696;23.360;2022-09-20T20:06:48;95383.44;;;15.97;57.88
34742;BME280;20968;42.696;23.360;2022-09-20T20:09:44;95385.09;;;16.28;56.18
34742;BME280;20968;42.696;23.360;2022-09-20T20:12:25;95387.00;;;16.65;54.63
34742;BME280;20968;42.696;23.360;2022-09-20T20:18:09;95393.94;;;16.99;50.69
34742;BME280;20968;42.696;23.360;2022-09-20T20:31:34;95392.34;;;17.09;47.83
34742;BME280;20968;42.696;23.360;2022-09-20T20:34:06;95391.28;;;16.72;48.21
34742;BME280;20968;42.696;23.360;2022-09-20T20:39:22;95391.72;;;16.19;49.37
34742;BME280;20968;42.696;23.360;2022-09-20T20:41:47;95385.44;;;15.97;49.35
34742;BME280;20968;42.696;23.360;2022-09-20T20:44:19;95404.91;;;15.86;50.53
34742;BME280;20968;42.696;23.360;2022-09-20T20:47:08;95399.34;;;15.75;50.58
34742;BME280;20968;42.696;23.360;2022-09-20T20:49:38;95388.00;;;15.46;51.12
34742;BME280;20968;42.696;23.360;2022-09-20T20:52:28;95384.94;;;15.22;51.48
34742;BME280;20968;42.696;23.360;2022-09-20T20:54:53;95385.66;;;15.00;52.11
34742;BME280;20968;42.696;23.360;2022-09-20T20:57:19;95403.03;;;14.90;53.00
34742;BME280;20968;42.696;23.360;2022-09-20T20:59:51;95386.84;;;14.72;53.06
34742;BME280;20968;42.696;23.360;2022-09-20T21:06:15;95401.69;;;14.58;53.46
34742;BME280;20968;42.696;23.360;2022-09-20T21:08:46;95380.91;;;14.32;54.09
34742;BME280;20968;42.696;23.360;2022-09-20T21:11:38;95384.91;;;14.25;54.26
34742;BME280;20968;42.696;23.360;2022-09-20T21:14:17;95394.50;;;14.30;54.83
34742;BME280;20968;42.696;23.360;2022-09-20T21:16:42;95397.00;;;14.22;54.80
34742;BME280;20968;42.696;23.360;2022-09-20T21:19:13;95402.00;;;14.18;54.75
34742;BME280;20968;42.696;23.360;2022-09-20T21:21:53;95399.75;;;14.22;54.59
34742;BME280;20968;42.696;23.360;2022-09-20T21:24:40;95392.44;;;14.19;54.38
34742;BME280;20968;42.696;23.360;2022-09-20T21:27:08;95403.00;;;14.15;54.89
34742;BME280;20968;42.696;23.360;2022-09-20T21:29:33;95390.34;;;14.09;54.81
34742;BME280;20968;42.696;23.360;2022-09-20T21:32:04;95395.66;;;14.12;55.88
34742;BME280;20968;42.696;23.360;2022-09-20T21:34:32;95391.66;;;14.13;55.50
34742;BME280;20968;42.696;23.360;2022-09-20T21:41:27;95410.78;;;14.11;56.38
34742;BME280;20968;42.696;23.360;2022-09-20T21:43:56;95405.94;;;13.70;57.39
34742;BME280;20968;42.696;23.360;2022-09-20T21:47:08;95387.06;;;13.69;56.60
34742;BME280;20968;42.696;23.360;2022-09-20T21:49:59;95399.91;;;13.66;55.88
34742;BME280;20968;42.696;23.360;2022-09-20T21:52:44;95386.47;;;13.59;55.90
34742;BME280;20968;42.696;23.360;2022-09-20T21:55:30;95399.38;;;13.68;56.33
34742;BME280;20968;42.696;23.360;2022-09-20T21:58:00;95393.84;;;13.68;56.76
34742;BME280;20968;42.696;23.360;2022-09-20T22:01:04;95386.94;;;13.52;56.69
34742;BME280;20968;42.696;23.360;2022-09-20T22:03:41;95398.28;;;13.54;56.27
34742;BME280;20968;42.696;23.360;2022-09-20T22:06:13;95397.31;;;13.57;56.84
34742;BME280;20968;42.696;23.360;2022-09-20T22:08:52;95399.06;;;13.60;56.54
34742;BME280;20968;42.696;23.360;2022-09-20T22:11:33;95380.66;;;13.52;56.77
34742;BME280;20968;42.696;23.360;2022-09-20T22:14:25;95375.06;;;13.46;57.63
34742;BME280;20968;42.696;23.360;2022-09-20T22:16:50;95376.78;;;13.38;56.89
34742;BME280;20968;42.696;23.360;2022-09-20T22:19:19;95381.06;;;13.39;56.54
34742;BME280;20968;42.696;23.360;2022-09-20T22:22:05;95378.25;;;13.34;56.81
34742;BME280;20968;42.696;23.360;2022-09-20T22:24:31;95382.47;;;13.24;57.09
34742;BME280;20968;42.696;23.360;2022-09-20T22:27:02;95376.06;;;13.13;57.34
34742;BME280;20968;42.696;23.360;2022-09-20T22:29:29;95385.25;;;13.29;57.56
34742;BME280;20968;42.696;23.360;2022-09-20T22:31:58;95375.47;;;13.34;56.79
34742;BME280;20968;42.696;23.360;2022-09-20T22:34:24;95380.03;;;13.37;57.23
34742;BME280;20968;42.696;23.360;2022-09-20T22:36:54;95384.06;;;13.36;57.52
34742;BME280;20968;42.696;23.360;2022-09-20T22:39:20;95391.84;;;13.37;56.55
34742;BME280;20968;42.696;23.360;2022-09-20T22:41:51;95385.53;;;13.31;56.98
34742;BME280;20968;42.696;23.360;2022-09-20T22:44:16;95376.69;;;13.27;57.53
34742;BME280;20968;42.696;23.360;2022-09-20T22:46:51;95391.59;;;13.35;57.56
34742;BME280;20968;42.696;23.360;2022-09-20T22:49:17;95383.78;;;13.34;57.68
34742;BME280;20968;42.696;23.360;2022-09-20T22:51:48;95403.00;;;13.48;57.05
34742;BME280;20968;42.696;23.360;2022-09-20T22:54:15;95389.84;;;13.38;57.86
34742;BME280;20968;42.696;23.360;2022-09-20T22:56:40;95413.31;;;13.48;56.93
34742;BME280;20968;42.696;23.360;2022-09-20T22:59:16;95404.25;;;13.47;57.27
34742;BME280;20968;42.696;23.360;2022-09-20T23:01:44;95396.47;;;13.46;57.29
34742;BME280;20968;42.696;23.360;2022-09-20T23:04:18;95389.47;;;13.25;57.83
34742;BME280;20968;42.696;23.360;2022-09-20T23:06:49;95392.25;;;13.00;57.89
34742;BME280;20968;42.696;23.360;2022-09-20T23:09:28;95407.03;;;12.51;60.33
34742;BME280;20968;42.696;23.360;2022-09-20T23:11:53;95389.94;;;12.28;59.88
34742;BME280;20968;42.696;23.360;2022-09-20T23:14:20;95401.47;;;12.26;60.00
34742;BME280;20968;42.696;23.360;2022-09-20T23:16:46;95404.22;;;12.46;59.46
34742;BME280;20968;42.696;23.360;2022-09-20T23:19:13;95399.84;;;12.59;59.45
34742;BME280;20968;42.696;23.360;2022-09-20T23:21:41;95383.38;;;12.45;59.33
34742;BME280;20968;42.696;23.360;2022-09-20T23:24:10;95389.84;;;12.62;59.99
34742;BME280;20968;42.696;23.360;2022-09-20T23:26:39;95394.63;;;12.61;59.95
34742;BME280;20968;42.696;23.360;2022-09-20T23:29:07;95382.84;;;12.66;59.75
34742;BME280;20968;42.696;23.360;2022-09-20T23:31:34;95388.72;;;12.74;59.74
34742;BME280;20968;42.696;23.360;2022-09-20T23:34:02;95378.13;;;12.72;59.54
34742;BME280;20968;42.696;23.360;2022-09-20T23:36:30;95385.31;;;12.84;59.38
34742;BME280;20968;42.696;23.360;2022-09-20T23:38:56;95385.13;;;12.88;59.28
34742;BME280;20968;42.696;23.360;2022-09-20T23:41:23;95387.31;;;12.84;60.03